Time;durP1;ratioP1;P1;durP2;ratioP2;P2;SDS_P1;SDS_P2;PMS_P1;PMS_P2;Temp;Humidity;BMP_temperature;BMP_pressure;BME280_temperature;BME280_humidity;BME280_pressure;Samples;Min_cycle;Max_cycle;Signal;HPM_P1;HPM_P2
2023/12/30 00:01:48;;;;;;;141.75;100.47;;;282.50;2278.40;;;;;;5068800;28;20040;-58
2023/12/30 00:04:14;;;;;;;128.98;83.05;;;282.50;2278.40;;;;;;5051868;28;20035;-53
2023/12/30 00:06:40;;;;;;;89.07;57.38;;;307.20;2304.00;;;;;;5069148;28;20115;-72
2023/12/30 00:09:06;;;;;;;75.60;50.05;;;307.20;2304.00;;;;;;5069255;28;20059;-54
2023/12/30 00:11:32;;;;;;;62.47;43.30;;;307.30;2304.00;;;;;;5069299;28;20016;-68
2023/12/30 00:13:58;;;;;;;69.75;47.22;;;307.30;2304.00;;;;;;5069710;28;20028;-54
2023/12/30 00:16:25;;;;;;;58.30;40.88;;;307.20;2304.00;;;;;;5069358;28;20052;-53
2023/12/30 00:18:50;;;;;;;64.15;38.63;;;307.40;2304.00;;;;;;5068644;28;20020;-54
2023/12/30 00:21:20;;;;;;;44.90;32.42;;;307.30;2304.00;;;;;;5066097;28;20032;-58
2023/12/30 00:23:46;;;;;;;52.75;33.80;;;307.20;2304.00;;;;;;5068560;28;20021;-57
2023/12/30 00:26:38;;;;;;;42.67;30.35;;;307.20;2304.00;;;;;;5069240;28;20087;-53
2023/12/30 00:29:04;;;;;;;95.60;58.78;;;307.20;2304.00;;;;;;5061084;28;20375;-64
2023/12/30 00:31:30;;;;;;;41.15;27.77;;;282.50;2278.40;;;;;;5086835;28;20027;-57
2023/12/30 00:33:58;;;;;;;270.83;156.68;;;307.20;2304.00;;;;;;5072146;28;20490;-75
2023/12/30 00:36:24;;;;;;;171.50;107.45;;;282.50;2278.40;;;;;;5056139;28;20025;-73
2023/12/30 00:38:55;;;;;;;68.25;43.47;;;282.40;2278.40;;;;;;5058347;28;20053;-61
2023/12/30 00:41:22;;;;;;;130.15;84.88;;;282.50;2278.40;;;;;;5054220;28;20044;-64
2023/12/30 00:43:48;;;;;;;148.95;94.50;;;282.40;2278.40;;;;;;5054582;28;20029;-57
2023/12/30 00:46:14;;;;;;;194.32;131.25;;;282.30;2278.40;;;;;;5088427;28;20085;-55
2023/12/30 00:48:40;;;;;;;91.53;62.47;;;282.20;2278.40;;;;;;5088340;28;20028;-73
2023/12/30 00:51:06;;;;;;;39.35;26.13;;;282.10;2278.40;;;;;;5091124;28;20024;-61
2023/12/30 00:53:31;;;;;;;62.03;37.60;;;282.40;2278.40;;;;;;5088942;28;20526;-66
2023/12/30 00:55:57;;;;;;;83.07;60.00;;;282.30;2278.40;;;;;;5079521;28;20017;-75
2023/12/30 00:58:24;;;;;;;67.22;44.33;;;282.20;2278.40;;;;;;5067633;28;20029;-73
2023/12/30 01:00:51;;;;;;;52.40;34.88;;;282.20;2278.40;;;;;;5064059;28;20028;-66
2023/12/30 01:03:17;;;;;;;39.67;26.70;;;282.20;2278.40;;;;;;5091185;28;20035;-70
2023/12/30 01:05:44;;;;;;;68.05;44.45;;;282.10;2278.40;;;;;;5084433;28;20017;-54
2023/12/30 01:08:10;;;;;;;45.22;31.05;;;282.00;2278.40;;;;;;5072323;28;20035;-54
2023/12/30 01:10:36;;;;;;;34.03;21.90;;;282.00;2278.40;;;;;;5072102;28;20025;-54
2023/12/30 01:13:03;;;;;;;29.80;21.25;;;282.10;2278.40;;;;;;5072672;28;20070;-73
2023/12/30 01:15:29;;;;;;;26.65;18.17;;;282.20;2278.40;;;;;;5072037;28;20036;-54
2023/12/30 01:17:55;;;;;;;127.82;81.88;;;282.20;2278.40;;;;;;5072052;28;20110;-54
2023/12/30 01:20:20;;;;;;;133.85;85.32;;;282.20;2278.40;;;;;;5072092;28;20471;-54
2023/12/30 01:22:46;;;;;;;22.05;13.20;;;282.10;2278.40;;;;;;5072281;28;20059;-54
2023/12/30 01:25:12;;;;;;;27.77;21.25;;;282.20;2278.40;;;;;;5072251;28;20135;-54
2023/12/30 01:27:38;;;;;;;22.25;14.95;;;282.30;2278.40;;;;;;5072051;28;20031;-74
2023/12/30 01:30:05;;;;;;;33.63;23.15;;;282.30;2278.40;;;;;;5071855;28;20063;-54
2023/12/30 01:32:31;;;;;;;33.20;21.20;;;282.30;2278.40;;;;;;5071792;28;20020;-54
2023/12/30 01:34:57;;;;;;;55.95;36.97;;;282.20;2278.40;;;;;;5071926;28;20048;-55
2023/12/30 01:37:22;;;;;;;35.00;23.10;;;282.30;2278.40;;;;;;5071996;28;20109;-54
2023/12/30 01:39:48;;;;;;;29.50;20.92;;;282.50;2278.40;;;;;;5071676;28;20070;-68
2023/12/30 01:42:14;;;;;;;19.70;12.93;;;282.50;2278.40;;;;;;5071315;28;20086;-75
2023/12/30 01:44:40;;;;;;;26.15;17.27;;;307.20;2304.00;;;;;;5071712;28;20173;-54
2023/12/30 01:47:06;;;;;;;18.02;12.73;;;307.20;2304.00;;;;;;5071737;28;20035;-54
2023/12/30 01:49:32;;;;;;;21.52;13.23;;;307.20;2304.00;;;;;;5071519;28;20099;-54
2023/12/30 01:51:58;;;;;;;14.25;11.13;;;307.20;2304.00;;;;;;5071842;28;20103;-53
2023/12/30 01:54:25;;;;;;;89.85;56.45;;;282.50;2278.40;;;;;;5071690;28;20032;-54
2023/12/30 01:56:51;;;;;;;87.97;58.03;;;282.40;2278.40;;;;;;5072060;28;20043;-53
2023/12/30 01:59:18;;;;;;;90.78;62.40;;;282.20;2278.40;;;;;;5071117;28;20123;-54
2023/12/30 02:01:45;;;;;;;35.55;21.88;;;282.20;2278.40;;;;;;5071037;28;20383;-59
2023/12/30 02:04:12;;;;;;;35.67;20.85;;;282.10;2278.40;;;;;;5071171;28;20142;-54
2023/12/30 02:06:39;;;;;;;16.50;11.55;;;282.00;2278.40;;;;;;5071964;28;20029;-53
2023/12/30 02:09:05;;;;;;;22.70;15.52;;;282.00;2278.40;;;;;;5071484;28;20121;-53
2023/12/30 02:11:32;;;;;;;23.77;16.02;;;282.20;2278.40;;;;;;5071374;28;20514;-54
2023/12/30 02:13:58;;;;;;;14.07;8.80;;;282.30;2278.40;;;;;;5071476;28;20513;-52
2023/12/30 02:16:23;;;;;;;11.10;7.28;;;282.30;2278.40;;;;;;5071297;28;20025;-54
2023/12/30 02:18:49;;;;;;;10.65;5.32;;;282.20;2278.40;;;;;;5070863;28;20029;-53
2023/12/30 02:21:15;;;;;;;19.13;12.43;;;282.20;2278.40;;;;;;5071267;28;20100;-53
2023/12/30 02:23:41;;;;;;;15.98;9.95;;;282.20;2278.40;;;;;;5071064;28;20024;-58
2023/12/30 02:26:10;;;;;;;14.10;9.52;;;282.40;2278.40;;;;;;5071182;28;20025;-53
2023/12/30 02:28:36;;;;;;;8.93;6.15;;;282.50;2278.40;;;;;;5070881;28;20425;-53
2023/12/30 02:31:03;;;;;;;12.73;8.13;;;307.20;2304.00;;;;;;5071456;28;20025;-55
2023/12/30 02:33:29;;;;;;;59.60;37.13;;;307.30;2304.00;;;;;;5070686;28;20375;-53
2023/12/30 02:35:55;;;;;;;130.77;84.13;;;307.20;2304.00;;;;;;5070749;28;20024;-53
2023/12/30 02:38:20;;;;;;;122.85;83.22;;;282.40;2278.40;;;;;;5070434;28;20048;-53
2023/12/30 02:40:46;;;;;;;108.90;69.57;;;282.20;2278.40;;;;;;5070492;28;20044;-54
2023/12/30 02:43:12;;;;;;;90.55;62.42;;;282.30;2278.40;;;;;;5071102;28;20081;-53
2023/12/30 02:45:38;;;;;;;91.68;60.35;;;282.40;2278.40;;;;;;5070664;28;20024;-54
2023/12/30 02:48:04;;;;;;;83.50;53.63;;;282.30;2278.40;;;;;;5070278;28;20028;-53
2023/12/30 02:50:30;;;;;;;58.97;41.10;;;282.30;2278.40;;;;;;5070468;28;20029;-56
2023/12/30 02:52:56;;;;;;;49.67;34.88;;;282.30;2278.40;;;;;;5070271;28;20020;-54
2023/12/30 02:55:21;;;;;;;31.25;21.88;;;282.40;2278.40;;;;;;5070544;28;20029;-53
2023/12/30 02:57:47;;;;;;;29.20;19.73;;;282.40;2278.40;;;;;;5070279;28;20019;-53
2023/12/30 03:00:13;;;;;;;17.50;12.20;;;282.30;2278.40;;;;;;5069962;28;20033;-54
2023/12/30 03:02:39;;;;;;;18.63;12.88;;;282.50;2278.40;;;;;;5070048;28;20033;-54
2023/12/30 03:05:05;;;;;;;14.32;10.40;;;282.50;2278.40;;;;;;5070208;28;20041;-54
2023/12/30 03:07:31;;;;;;;14.98;8.20;;;282.40;2278.40;;;;;;5069976;28;20104;-54
2023/12/30 03:09:57;;;;;;;12.90;7.70;;;282.30;2278.40;;;;;;5070201;28;20166;-52
2023/12/30 03:12:23;;;;;;;9.68;8.07;;;282.30;2278.40;;;;;;5068868;28;20459;-54
2023/12/30 03:14:49;;;;;;;14.43;10.25;;;282.40;2278.40;;;;;;5070176;28;20047;-53
2023/12/30 03:17:14;;;;;;;11.07;7.13;;;282.30;2278.40;;;;;;5069718;28;20020;-72
2023/12/30 03:19:41;;;;;;;8.85;6.32;;;282.20;2278.40;;;;;;5069809;28;20072;-54
2023/12/30 03:22:07;;;;;;;9.93;6.03;;;282.20;2278.40;;;;;;5069613;28;20466;-53
2023/12/30 03:24:32;;;;;;;9.10;6.82;;;282.10;2278.40;;;;;;5070177;28;20446;-53
2023/12/30 03:26:59;;;;;;;9.10;6.25;;;282.00;2278.40;;;;;;5070089;28;20063;-53
2023/12/30 03:29:25;;;;;;;6.38;5.00;;;282.10;2278.40;;;;;;5069825;28;20020;-53
2023/12/30 03:31:53;;;;;;;5.82;4.32;;;282.20;2278.40;;;;;;5069941;28;20159;-54
2023/12/30 03:34:19;;;;;;;6.15;4.82;;;282.40;2278.40;;;;;;5069474;28;20441;-53
2023/12/30 03:36:44;;;;;;;8.20;4.32;;;282.40;2278.40;;;;;;5069281;28;20024;-54
2023/12/30 03:39:10;;;;;;;6.57;4.45;;;282.50;2278.40;;;;;;5069284;28;20090;-54
2023/12/30 03:41:36;;;;;;;8.05;4.57;;;282.50;2278.40;;;;;;5069767;28;20069;-54
2023/12/30 03:44:02;;;;;;;6.22;3.67;;;307.20;2304.00;;;;;;5069589;28;20040;-54
2023/12/30 03:46:27;;;;;;;6.88;3.70;;;307.20;2304.00;;;;;;5069382;28;20027;-54
2023/12/30 03:48:53;;;;;;;90.55;80.82;;;307.20;2304.00;;;;;;5069454;28;20032;-55
2023/12/30 03:51:19;;;;;;;9.73;7.30;;;307.20;2304.00;;;;;;5069595;28;20029;-54
2023/12/30 03:53:45;;;;;;;6.25;4.25;;;307.20;2304.00;;;;;;5069369;28;20473;-54
2023/12/30 03:56:12;;;;;;;7.93;4.35;;;307.20;2304.00;;;;;;5069375;28;20078;-54
2023/12/30 03:58:38;;;;;;;8.82;5.50;;;307.20;2304.00;;;;;;5069234;28;20103;-53
2023/12/30 04:01:04;;;;;;;5.15;3.33;;;307.20;2304.00;;;;;;5069149;28;20149;-70
2023/12/30 04:03:29;;;;;;;5.97;4.30;;;307.20;2304.00;;;;;;5051345;28;20490;-54
2023/12/30 04:05:55;;;;;;;6.15;3.97;;;307.20;2304.00;;;;;;5069493;28;20036;-55
2023/12/30 04:08:21;;;;;;;4.95;3.35;;;307.30;2304.00;;;;;;5069218;28;20386;-54
2023/12/30 04:10:47;;;;;;;7.72;4.72;;;307.30;2304.00;;;;;;5069001;28;20438;-54
2023/12/30 04:13:13;;;;;;;5.82;3.78;;;307.40;2304.00;;;;;;5069208;28;20028;-54
2023/12/30 04:15:38;;;;;;;5.25;3.60;;;307.40;2304.00;;;;;;5069335;28;20048;-53
2023/12/30 04:18:04;;;;;;;7.18;3.80;;;307.40;2304.00;;;;;;5069182;28;20029;-53
2023/12/30 04:20:30;;;;;;;7.32;6.20;;;307.50;2304.00;;;;;;5069156;28;20032;-59
2023/12/30 04:22:56;;;;;;;12.35;6.10;;;307.40;2304.00;;;;;;5068761;28;20029;-54
2023/12/30 04:25:22;;;;;;;12.23;5.20;;;307.40;2304.00;;;;;;5069168;28;20032;-54
2023/12/30 04:27:49;;;;;;;15.73;12.32;;;307.40;2304.00;;;;;;5069093;28;20425;-54
2023/12/30 04:30:14;;;;;;;11.13;9.18;;;307.40;2304.00;;;;;;5069056;28;20112;-54
2023/12/30 04:32:40;;;;;;;13.07;8.95;;;307.30;2304.00;;;;;;5068978;28;20060;-53
2023/12/30 04:35:07;;;;;;;11.73;7.43;;;307.30;2304.00;;;;;;5068703;28;20347;-54
2023/12/30 04:37:32;;;;;;;21.35;10.88;;;307.30;2304.00;;;;;;5068846;28;20021;-54
2023/12/30 04:39:58;;;;;;;21.05;12.38;;;307.20;2304.00;;;;;;5068571;28;20060;-53
2023/12/30 04:42:24;;;;;;;10.82;7.35;;;307.20;2304.00;;;;;;5068911;28;20055;-53
2023/12/30 04:44:50;;;;;;;34.17;23.63;;;307.20;2304.00;;;;;;5068809;28;20029;-53
2023/12/30 04:47:15;;;;;;;24.35;18.25;;;282.40;2278.40;;;;;;5068657;28;20032;-55
2023/12/30 04:49:41;;;;;;;16.55;13.30;;;282.40;2278.40;;;;;;5068917;28;20028;-53
2023/12/30 04:52:07;;;;;;;10.88;7.25;;;282.50;2278.40;;;;;;5068899;28;20024;-53
2023/12/30 04:54:33;;;;;;;7.00;5.30;;;282.50;2278.40;;;;;;5068476;28;20021;-54
2023/12/30 04:56:58;;;;;;;7.70;5.35;;;282.50;2278.40;;;;;;5068986;28;20379;-57
2023/12/30 04:59:26;;;;;;;6.65;4.57;;;282.50;2278.40;;;;;;5068671;28;20024;-54
2023/12/30 05:01:52;;;;;;;4.82;3.38;;;282.50;2278.40;;;;;;5068918;28;20056;-54
2023/12/30 05:04:17;;;;;;;6.63;4.65;;;307.20;2304.00;;;;;;5068434;28;20044;-72
2023/12/30 05:06:43;;;;;;;5.28;3.80;;;307.20;2304.00;;;;;;5070327;28;20411;-58
2023/12/30 05:09:09;;;;;;;5.20;3.60;;;307.20;2304.00;;;;;;5070762;28;20115;-66
2023/12/30 05:11:35;;;;;;;7.78;5.28;;;307.30;2304.00;;;;;;5067711;28;20021;-54
2023/12/30 05:14:01;;;;;;;11.50;8.32;;;307.40;2304.00;;;;;;5050894;28;20032;-72
2023/12/30 05:16:27;;;;;;;12.27;7.65;;;307.40;2304.00;;;;;;5068843;28;20032;-54
2023/12/30 05:18:53;;;;;;;14.23;9.35;;;307.40;2304.00;;;;;;5068696;28;20033;-54
2023/12/30 05:21:18;;;;;;;12.38;6.65;;;307.40;2304.00;;;;;;5059509;28;20036;-54
2023/12/30 05:23:44;;;;;;;8.68;6.30;;;307.40;2304.00;;;;;;5055989;28;20028;-54
2023/12/30 05:26:14;;;;;;;13.43;7.32;;;307.40;2304.00;;;;;;5068665;28;20063;-54
2023/12/30 05:28:40;;;;;;;8.50;5.10;;;307.40;2304.00;;;;;;5068482;28;20032;-54
2023/12/30 05:31:06;;;;;;;8.43;4.38;;;307.50;2304.00;;;;;;5068445;28;20017;-54
2023/12/30 05:33:32;;;;;;;13.68;5.65;;;307.50;2304.00;;;;;;5068570;28;20035;-54
2023/12/30 05:35:58;;;;;;;9.35;6.68;;;307.50;2304.00;;;;;;5070188;28;20382;-53
2023/12/30 05:38:24;;;;;;;13.90;8.82;;;307.50;2304.00;;;;;;5071555;28;20036;-54
2023/12/30 05:40:50;;;;;;;10.63;7.32;;;307.60;2304.00;;;;;;5083660;28;20047;-54
2023/12/30 05:43:15;;;;;;;10.90;6.68;;;307.40;2304.00;;;;;;5071738;28;20391;-54
2023/12/30 05:45:43;;;;;;;10.15;6.35;;;307.30;2304.00;;;;;;5067293;28;20032;-54
2023/12/30 05:48:09;;;;;;;8.23;6.75;;;307.30;2304.00;;;;;;5071829;28;20029;-54
2023/12/30 05:50:35;;;;;;;7.97;5.82;;;307.30;2304.00;;;;;;5071504;28;20554;-54
2023/12/30 05:53:01;;;;;;;11.75;6.22;;;307.40;2304.00;;;;;;5071813;28;20442;-61
2023/12/30 05:55:27;;;;;;;40.80;27.70;;;307.40;2304.00;;;;;;5071418;28;20024;-54
2023/12/30 05:57:53;;;;;;;57.90;41.35;;;282.50;2278.40;;;;;;5071830;28;20013;-55
2023/12/30 06:00:19;;;;;;;30.13;21.20;;;282.00;2278.40;;;;;;5071101;28;20064;-54
2023/12/30 06:02:45;;;;;;;51.05;30.45;;;282.00;2278.40;;;;;;5075256;28;20070;-54
2023/12/30 06:05:11;;;;;;;85.10;50.85;;;281.80;2278.40;;;;;;5064444;28;20368;-53
2023/12/30 06:07:40;;;;;;;91.28;58.50;;;281.80;2278.40;;;;;;5070856;28;20094;-55
2023/12/30 06:10:07;;;;;;;86.25;54.22;;;282.10;2278.40;;;;;;5072874;28;20089;-54
2023/12/30 06:12:33;;;;;;;65.25;41.67;;;282.20;2278.40;;;;;;5071722;28;20615;-55
2023/12/30 06:14:59;;;;;;;60.13;42.55;;;282.20;2278.40;;;;;;5070186;28;20032;-54
2023/12/30 06:17:25;;;;;;;57.25;39.28;;;282.10;2278.40;;;;;;5066663;28;20391;-61
2023/12/30 06:19:50;;;;;;;59.03;39.85;;;282.00;2278.40;;;;;;5067787;28;20043;-54
2023/12/30 06:22:16;;;;;;;50.22;31.85;;;282.00;2278.40;;;;;;5071554;28;20017;-58
2023/12/30 06:24:42;;;;;;;50.78;33.35;;;282.00;2278.40;;;;;;5067744;28;20039;-54
2023/12/30 06:27:07;;;;;;;40.65;24.65;;;282.10;2278.40;;;;;;5066675;28;20029;-54
2023/12/30 06:29:33;;;;;;;36.45;22.35;;;282.00;2278.40;;;;;;5070882;28;20024;-62
2023/12/30 06:31:59;;;;;;;32.15;22.60;;;282.00;2278.40;;;;;;5070990;28;20115;-63
2023/12/30 06:34:25;;;;;;;41.00;24.63;;;282.20;2278.40;;;;;;5070787;28;20023;-62
2023/12/30 06:36:50;;;;;;;31.55;22.42;;;282.30;2278.40;;;;;;5070698;28;20027;-62
2023/12/30 06:39:18;;;;;;;31.95;22.05;;;282.30;2278.40;;;;;;5070245;28;20049;-62
2023/12/30 06:41:44;;;;;;;43.00;29.42;;;282.40;2278.40;;;;;;5070629;28;20060;-62
2023/12/30 06:44:10;;;;;;;60.00;38.22;;;282.50;2278.40;;;;;;5070872;28;20125;-62
2023/12/30 06:46:35;;;;;;;137.93;87.50;;;307.20;2304.00;;;;;;5070336;28;20449;-62
2023/12/30 06:49:01;;;;;;;110.90;68.35;;;282.50;2278.40;;;;;;5070353;28;20024;-63
2023/12/30 06:51:28;;;;;;;143.50;92.10;;;307.20;2304.00;;;;;;5070491;28;20016;-64
2023/12/30 06:53:54;;;;;;;123.53;79.20;;;307.20;2304.00;;;;;;5070337;28;20024;-63
2023/12/30 06:56:20;;;;;;;94.13;66.88;;;307.20;2304.00;;;;;;5070090;28;20060;-62
2023/12/30 06:58:46;;;;;;;82.55;57.20;;;307.30;2304.00;;;;;;5070024;28;20051;-67
2023/12/30 07:01:12;;;;;;;83.18;55.90;;;307.40;2304.00;;;;;;5070629;28;20064;-63
2023/12/30 07:03:39;;;;;;;95.18;63.15;;;307.40;2304.00;;;;;;5070725;28;20017;-62
2023/12/30 07:06:05;;;;;;;107.72;71.00;;;307.30;2304.00;;;;;;5069214;28;20029;-62
2023/12/30 07:08:31;;;;;;;110.03;78.82;;;307.40;2304.00;;;;;;5069169;28;20021;-64
2023/12/30 07:10:57;;;;;;;83.45;56.58;;;307.60;2304.00;;;;;;5073786;28;20028;-64
2023/12/30 07:13:22;;;;;;;74.22;50.88;;;307.70;2304.00;;;;;;5059353;28;20028;-65
2023/12/30 07:15:50;;;;;;;122.60;89.47;;;307.80;2304.00;;;;;;5062550;28;20029;-67
2023/12/30 07:18:17;;;;;;;92.80;64.72;;;307.60;2304.00;;;;;;5069878;28;20040;-62
2023/12/30 07:20:43;;;;;;;71.72;47.15;;;307.50;2304.00;;;;;;5043375;28;20051;-66
2023/12/30 07:23:09;;;;;;;52.92;37.00;;;307.50;2304.00;;;;;;5083591;28;20050;-67
2023/12/30 07:25:34;;;;;;;57.10;35.60;;;307.60;2304.00;;;;;;5088087;28;20039;-66
2023/12/30 07:28:00;;;;;;;45.47;30.75;;;307.80;2304.00;;;;;;5081819;28;20016;-64
2023/12/30 07:30:26;;;;;;;44.40;28.25;;;307.80;2304.00;;;;;;5078361;28;20055;-65
2023/12/30 07:32:52;;;;;;;45.13;31.25;;;307.80;2304.00;;;;;;5051719;28;20132;-64
2023/12/30 07:35:17;;;;;;;49.97;33.33;;;308.10;2304.00;;;;;;5069652;28;20025;-61
2023/12/30 07:37:45;;;;;;;42.53;31.02;;;332.80;2329.60;;;;;;5068697;28;20024;-63
2023/12/30 07:40:12;;;;;;;84.72;61.67;;;332.80;2329.60;;;;;;5069370;28;20063;-65
2023/12/30 07:42:38;;;;;;;122.90;101.15;;;308.10;2304.00;;;;;;5069642;28;20059;-62
2023/12/30 07:45:06;;;;;;;139.88;108.82;;;308.10;2304.00;;;;;;5068783;28;20048;-62
2023/12/30 07:47:35;;;;;;;105.28;79.80;;;308.10;2304.00;;;;;;5072746;28;20472;-62
2023/12/30 07:50:01;;;;;;;115.40;85.65;;;308.10;2304.00;;;;;;5069404;28;20356;-68
2023/12/30 07:52:26;;;;;;;77.47;59.13;;;332.80;2329.60;;;;;;5069518;28;20027;-63
2023/12/30 07:54:52;;;;;;;102.25;83.05;;;333.00;2329.60;;;;;;5069310;28;20138;-65
2023/12/30 07:57:18;;;;;;;141.70;97.22;;;333.20;2329.60;;;;;;5069037;28;20419;-63
2023/12/30 07:59:44;;;;;;;132.27;99.38;;;333.30;2329.60;;;;;;5068984;28;20111;-63
2023/12/30 08:02:10;;;;;;;192.95;143.95;;;333.40;2329.60;;;;;;5069642;28;20108;-63
2023/12/30 08:04:36;;;;;;;161.13;118.00;;;333.40;2329.60;;;;;;5067605;28;20052;-67
2023/12/30 08:07:02;;;;;;;183.48;135.32;;;333.60;2329.60;;;;;;5064500;28;20112;-67
2023/12/30 08:09:27;;;;;;;96.18;68.00;;;333.60;2329.60;;;;;;5073423;28;20112;-63
2023/12/30 08:11:53;;;;;;;84.90;67.20;;;358.40;2329.60;;;;;;5069091;28;20028;-67
2023/12/30 08:14:19;;;;;;;96.13;74.28;;;358.40;2329.60;;;;;;5069375;28;20047;-67
2023/12/30 08:16:45;;;;;;;103.03;76.82;;;358.50;2329.60;;;;;;5069239;28;20092;-63
2023/12/30 08:19:11;;;;;;;118.35;94.53;;;358.60;2329.60;;;;;;5066929;28;20383;-63
2023/12/30 08:21:37;;;;;;;115.45;86.25;;;358.60;2329.60;;;;;;5069022;28;20039;-63
2023/12/30 08:24:06;;;;;;;127.82;94.50;;;358.60;2329.60;;;;;;5073323;28;20024;-66
2023/12/30 08:26:32;;;;;;;86.50;61.55;;;358.60;2329.60;;;;;;5068329;28;20025;-63
2023/12/30 08:28:57;;;;;;;87.60;64.18;;;358.50;2329.60;;;;;;5069034;28;20031;-65
2023/12/30 08:31:23;;;;;;;93.88;67.53;;;358.40;2329.60;;;;;;5068891;28;20077;-63
2023/12/30 08:33:50;;;;;;;123.15;97.50;;;333.60;2329.60;;;;;;5069032;28;20045;-63
2023/12/30 08:36:16;;;;;;;125.32;93.07;;;333.50;2329.60;;;;;;5068301;28;20466;-62
2023/12/30 08:38:42;;;;;;;216.15;154.18;;;333.40;2329.60;;;;;;5068614;28;20102;-63
2023/12/30 08:41:14;;;;;;;124.28;92.60;;;333.40;2329.60;;;;;;5068261;28;20068;-63
2023/12/30 08:43:43;;;;;;;186.98;140.23;;;333.60;2329.60;;;;;;5069208;28;20039;-64
2023/12/30 08:46:10;;;;;;;239.57;173.55;;;333.70;2329.60;;;;;;5069174;28;20020;-63
2023/12/30 08:48:36;;;;;;;166.98;124.53;;;333.70;2329.60;;;;;;5065075;28;20017;-68
2023/12/30 08:51:02;;;;;;;125.63;92.03;;;358.40;2329.60;;;;;;5065315;28;20119;-66
2023/12/30 08:53:28;;;;;;;178.13;108.70;;;358.40;2329.60;;;;;;5062955;28;20107;-67
2023/12/30 08:55:55;;;;;;;129.73;86.35;;;333.70;2329.60;;;;;;5065270;28;20035;-64
2023/12/30 08:58:23;;;;;;;91.28;66.45;;;358.50;2329.60;;;;;;5064045;28;20444;-65
2023/12/30 09:00:49;;;;;;;148.77;115.57;;;358.60;2329.60;;;;;;5073134;28;20109;-68
2023/12/30 09:03:15;;;;;;;111.38;89.85;;;358.70;2329.60;;;;;;5068621;28;20032;-63
2023/12/30 09:05:41;;;;;;;124.15;88.15;;;358.80;2329.60;;;;;;5068438;28;20029;-69
2023/12/30 09:08:07;;;;;;;425.60;316.38;;;358.70;2329.60;;;;;;5068540;28;20025;-63
2023/12/30 09:10:33;;;;;;;551.83;402.13;;;358.80;2329.60;;;;;;5059845;28;20029;-66
2023/12/30 09:12:58;;;;;;;446.48;330.20;;;358.90;2329.60;;;;;;5080979;28;20031;-63
2023/12/30 09:15:25;;;;;;;408.25;302.58;;;358.90;2329.60;;;;;;5067911;28;20048;-64
2023/12/30 09:17:51;;;;;;;192.07;141.57;;;359.00;2329.60;;;;;;5079739;28;20020;-67
2023/12/30 09:20:17;;;;;;;104.40;68.32;;;359.10;2329.60;;;;;;5087370;28;20028;-67
2023/12/30 09:22:43;;;;;;;26.35;20.33;;;384.00;2329.60;;;;;;5088835;28;20019;-66
2023/12/30 09:25:09;;;;;;;170.70;120.93;;;384.20;2329.60;;;;;;5090597;28;20036;-68
2023/12/30 09:27:35;;;;;;;131.20;98.93;;;359.10;2329.60;;;;;;5085292;28;20463;-68
2023/12/30 09:30:01;;;;;;;106.68;84.93;;;358.90;2329.60;;;;;;5079207;28;20035;-68
2023/12/30 09:32:26;;;;;;;136.02;98.47;;;359.00;2329.60;;;;;;5068858;28;20436;-68
2023/12/30 09:34:53;;;;;;;204.45;153.40;;;359.10;2329.60;;;;;;5071622;28;20028;-64
2023/12/30 09:37:19;;;;;;;194.90;149.77;;;359.20;2329.60;;;;;;5071857;28;20036;-65
2023/12/30 09:39:46;;;;;;;258.38;190.95;;;384.00;2329.60;;;;;;5071171;28;20176;-64
2023/12/30 09:42:11;;;;;;;230.13;170.73;;;384.40;2329.60;;;;;;5082558;28;20031;-64
2023/12/30 09:44:39;;;;;;;229.77;170.65;;;384.50;2329.60;;;;;;5071559;28;20111;-64
2023/12/30 09:47:10;;;;;;;223.70;177.45;;;384.60;2329.60;;;;;;5071735;28;20066;-63
2023/12/30 09:49:37;;;;;;;94.93;74.20;;;384.90;2329.60;;;;;;5071450;28;20417;-64
2023/12/30 09:52:06;;;;;;;79.03;58.10;;;409.70;2355.20;;;;;;5071785;28;20016;-63
2023/12/30 09:54:35;;;;;;;63.78;51.20;;;409.70;2355.20;;;;;;5071525;28;20485;-64
2023/12/30 09:57:02;;;;;;;81.43;51.97;;;410.00;2329.60;;;;;;5071961;28;20055;-69
2023/12/30 09:59:30;;;;;;;49.08;34.50;;;410.20;2304.00;;;;;;5071787;28;20037;-64
2023/12/30 10:01:57;;;;;;;36.08;24.60;;;410.20;2278.40;;;;;;5071605;28;20387;-64
2023/12/30 10:04:23;;;;;;;36.38;26.90;;;410.30;2252.80;;;;;;5071389;28;20413;-64
2023/12/30 10:06:51;;;;;;;26.08;18.15;;;410.50;2227.20;;;;;;5071399;28;20029;-64
2023/12/30 10:09:18;;;;;;;51.03;36.65;;;410.50;2201.60;;;;;;5071059;28;20033;-64
2023/12/30 10:11:46;;;;;;;66.03;42.17;;;410.50;2227.20;;;;;;5071210;28;20024;-68
2023/12/30 10:14:12;;;;;;;33.58;25.55;;;410.30;2176.00;;;;;;5071300;28;20031;-64
2023/12/30 10:16:38;;;;;;;28.13;20.73;;;410.30;2150.40;;;;;;5071147;28;20024;-64
2023/12/30 10:19:13;;;;;;;23.55;18.00;;;410.50;2150.40;;;;;;5071263;28;20029;-64
2023/12/30 10:21:39;;;;;;;105.97;67.18;;;435.30;2124.80;;;;;;5070448;28;20040;-64
2023/12/30 10:24:05;;;;;;;90.93;56.58;;;435.40;2176.00;;;;;;5071203;28;20593;-64
2023/12/30 10:26:32;;;;;;;64.65;43.00;;;435.50;2150.40;;;;;;5070968;28;20035;-65
2023/12/30 10:28:58;;;;;;;45.50;33.67;;;435.60;2176.00;;;;;;5071157;28;20025;-64
2023/12/30 10:31:24;;;;;;;76.85;59.38;;;435.70;2124.80;;;;;;5071135;28;20021;-68
2023/12/30 10:33:54;;;;;;;37.60;29.73;;;435.50;2124.80;;;;;;5071012;28;20052;-64
2023/12/30 10:36:20;;;;;;;23.45;19.08;;;435.60;2124.80;;;;;;5057765;28;20082;-64
2023/12/30 10:38:46;;;;;;;23.20;16.88;;;435.60;2124.80;;;;;;5070157;28;20098;-67
2023/12/30 10:41:15;;;;;;;30.77;21.95;;;435.30;2099.20;;;;;;5070718;28;20036;-64
2023/12/30 10:43:41;;;;;;;26.77;20.20;;;435.30;2124.80;;;;;;5070986;28;20422;-64
2023/12/30 10:46:11;;;;;;;18.55;12.57;;;435.40;2099.20;;;;;;5070684;28;20025;-64
2023/12/30 10:48:53;;;;;;;14.23;10.98;;;435.40;2099.20;;;;;;5070593;28;20032;-64
2023/12/30 10:51:28;;;;;;;9.88;6.80;;;435.30;2099.20;;;;;;5070783;28;20520;-64
2023/12/30 10:54:05;;;;;;;8.85;6.10;;;435.30;2073.60;;;;;;5070564;28;20103;-65
2023/12/30 10:56:39;;;;;;;25.17;18.02;;;435.20;2073.60;;;;;;5070776;28;20116;-64
2023/12/30 10:59:07;;;;;;;14.95;9.30;;;435.40;2048.00;;;;;;5070766;28;20055;-64
2023/12/30 11:01:34;;;;;;;17.75;12.27;;;435.30;2048.00;;;;;;5070800;28;20042;-69
2023/12/30 11:04:11;;;;;;;51.33;35.35;;;435.20;2022.40;;;;;;5070665;28;20063;-64
2023/12/30 11:06:48;;;;;;;12.40;8.77;;;435.20;2048.00;;;;;;5070322;28;20028;-65
2023/12/30 11:09:14;;;;;;;6.68;4.28;;;410.50;2048.00;;;;;;5069955;28;20025;-65
2023/12/30 11:11:49;;;;;;;98.78;67.43;;;410.50;2048.00;;;;;;5070288;28;20123;-65
2023/12/30 11:14:15;;;;;;;18.80;11.35;;;410.50;2048.00;;;;;;5066295;28;20109;-65
2023/12/30 11:16:41;;;;;;;8.60;5.78;;;435.30;2048.00;;;;;;5072928;28;20057;-69
2023/12/30 11:19:07;;;;;;;25.25;16.60;;;435.20;2073.60;;;;;;5053878;28;20051;-65
2023/12/30 11:21:38;;;;;;;49.60;17.20;;;435.40;2048.00;;;;;;5053566;28;20463;-64
2023/12/30 11:24:07;;;;;;;23.35;16.33;;;435.50;2048.00;;;;;;5053620;28;20078;-64
2023/12/30 11:26:41;;;;;;;138.77;92.38;;;435.40;2048.00;;;;;;5053799;28;20032;-65
2023/12/30 11:29:25;;;;;;;462.45;300.83;;;435.50;2022.40;;;;;;5053724;28;20021;-65
2023/12/30 11:31:52;;;;;;;71.53;41.63;;;435.60;2022.40;;;;;;5053387;28;20497;-68
2023/12/30 11:34:19;;;;;;;9.32;6.65;;;435.70;2022.40;;;;;;5052865;28;20025;-65
2023/12/30 11:36:46;;;;;;;24.83;22.20;;;435.80;2048.00;;;;;;5053527;28;20033;-69
2023/12/30 11:39:38;;;;;;;10.35;9.23;;;435.60;2022.40;;;;;;5053031;28;20471;-68
2023/12/30 11:42:06;;;;;;;15.85;10.30;;;435.60;2022.40;;;;;;5035660;28;20407;-67
2023/12/30 11:44:32;;;;;;;37.75;25.20;;;435.80;1996.80;;;;;;5053207;28;20021;-69
2023/12/30 11:46:58;;;;;;;20.20;14.35;;;435.90;2022.40;;;;;;5053541;28;20031;-70
2023/12/30 11:49:25;;;;;;;11.82;8.52;;;435.90;1971.20;;;;;;5053401;28;20025;-68
2023/12/30 11:52:02;;;;;;;6.88;5.68;;;436.10;1996.80;;;;;;5053101;28;20031;-66
2023/12/30 11:54:27;;;;;;;7.18;5.30;;;436.00;1996.80;;;;;;5053047;28;20032;-69
2023/12/30 11:56:53;;;;;;;11.02;7.13;;;436.00;1996.80;;;;;;5053361;28;20028;-64
2023/12/30 11:59:19;;;;;;;13.43;9.25;;;436.00;1971.20;;;;;;5053184;28;20202;-69